Woodstock, VT

7:25 AM EDT on August 20, 2014 (GMT -0400)
Suicide Six Ski Area | Change Station
CLOSE
Current Station
Personal Weather Station
Location: South Pomfret, VT
Elevation: 850 ft
Nearby Weather Stations

Elev 850 ft 43.68 °N, 72.56 °W | Updated 3 seconds ago

Fog
Fog
46.3 °F
Feels Like 46 °F
N
0.0
Wind Variable Wind from North
Gusts 0.0 mph

Today
High -- | Low -- °F
--% Chance of Precip.
Yesterday
High -- | Low -- °F
Precip. -- in
6:00 AM 7:45 PM
Waning Crescent, 22% visible
Pressure 30.01 in
Visibility 0.2 miles
Clouds
Windchill 46 °F
Dew Point 46 °F
Humidity 97%
Rainfall 0.00 in
Snow Depth Not available.
UV Not available.
Pollen 8.40 out of 12
Ozone Good
Flu Activity Not available.
METAR KLEB 201053Z 06004KT 1/4SM FG VV001 12/11 A3002 RMK AO2 SLP162 T01170106

More Conditions Fewer Conditions

Pressure 30.01 in
Visibility 0.2 miles
Clouds
Windchill 46 °F
Dew Point 46 °F
Humidity 97%
Rainfall 0.00 in
Snow Depth Not available.
UV Not available.
Pollen 8.40 out of 12
Ozone Good
Flu Activity Not available.
METAR KLEB 201053Z 06004KT 1/4SM FG VV001 12/11 A3002 RMK AO2 SLP162 T01170106

More Conditions Fewer Conditions

10-Day Weather Forecast

Almanac

Astronomy

Aug. 20, 2014 Rise Set
Actual Time 6:00 AM EDT 7:45 PM EDT
Civil Twilight 5:29 AM EDT 8:16 PM EDT
Nautical Twilight 4:52 AM EDT 8:53 PM EDT
Astronomical Twilight 4:12 AM EDT 9:33 PM EDT
Moon 1:34 AM EDT 4:31 PM EDT
Length of Visible Light 14h 46m
Length of Day
13h 45m
Tomorrow will be 2m 45s shorter.
Waning Crescent, 22% of the Moon is Illuminated
Today
Waning Crescent
Aug 25
New
Sep 2
First Quarter
Sep 8
Full
Sep 15
Last Quarter

Today's Extremes

State Highs State Lows

Community

WunderPhotos

Upload Photos

1,745,611 photos uploaded!

Nearby

Air Quality

  Air Quality AQ Index Pollutant
Yesterday Good
OZONE
Current Good
OZONE
Wednesday Good
PM2.5
Wednesday Good
OZONE
Thursday Good
PM2.5
Thursday Good
OZONE

Snow Depth

Station Depth Elevation
No new snow has been reported.

Earthquake Activity

City Distance Mag. Time & Date
No recent earthquake activity has been reported nearby.
Minimum magnitude displayed is 2.5.

Coastal Water Temperatures

Place Temperature
No Stations Reporting

Nearby Weather Stations